sensor_id;sensor_type;location;lat;lon;timestamp;P1;durP1;ratioP1;P2;durP2;ratioP2
25207;SDS011;13153;52.316;21.166;2023-11-21T00:00:31;46.78;;;27.45;;
25207;SDS011;13153;52.316;21.166;2023-11-21T00:02:57;50.60;;;29.30;;
25207;SDS011;13153;52.316;21.166;2023-11-21T00:05:22;46.75;;;28.13;;
25207;SDS011;13153;52.316;21.166;2023-11-21T00:07:48;50.30;;;28.98;;
25207;SDS011;13153;52.316;21.166;2023-11-21T00:10:14;49.65;;;27.95;;
25207;SDS011;13153;52.316;21.166;2023-11-21T00:12:41;51.00;;;28.45;;
25207;SDS011;13153;52.316;21.166;2023-11-21T00:15:07;50.70;;;28.88;;
25207;SDS011;13153;52.316;21.166;2023-11-21T00:17:40;50.58;;;28.85;;
25207;SDS011;13153;52.316;21.166;2023-11-21T00:20:07;56.97;;;31.23;;
25207;SDS011;13153;52.316;21.166;2023-11-21T00:22:37;52.95;;;29.40;;
25207;SDS011;13153;52.316;21.166;2023-11-21T00:25:03;56.20;;;31.05;;
25207;SDS011;13153;52.316;21.166;2023-11-21T00:27:30;51.97;;;29.63;;
25207;SDS011;13153;52.316;21.166;2023-11-21T00:29:55;49.90;;;29.08;;
25207;SDS011;13153;52.316;21.166;2023-11-21T00:32:21;48.85;;;27.98;;
25207;SDS011;13153;52.316;21.166;2023-11-21T00:34:47;47.97;;;27.35;;
25207;SDS011;13153;52.316;21.166;2023-11-21T00:37:14;48.42;;;28.05;;
25207;SDS011;13153;52.316;21.166;2023-11-21T00:39:39;53.50;;;29.35;;
25207;SDS011;13153;52.316;21.166;2023-11-21T00:42:05;52.60;;;28.95;;
25207;SDS011;13153;52.316;21.166;2023-11-21T00:44:31;49.40;;;28.30;;
25207;SDS011;13153;52.316;21.166;2023-11-21T00:46:59;46.60;;;28.05;;
25207;SDS011;13153;52.316;21.166;2023-11-21T00:49:25;49.13;;;28.70;;
25207;SDS011;13153;52.316;21.166;2023-11-21T00:51:50;49.53;;;28.35;;
25207;SDS011;13153;52.316;21.166;2023-11-21T00:54:16;50.03;;;27.25;;
25207;SDS011;13153;52.316;21.166;2023-11-21T00:56:42;46.90;;;26.85;;
25207;SDS011;13153;52.316;21.166;2023-11-21T00:59:08;46.65;;;27.05;;
25207;SDS011;13153;52.316;21.166;2023-11-21T01:01:35;44.53;;;26.08;;
25207;SDS011;13153;52.316;21.166;2023-11-21T01:04:02;46.45;;;26.80;;
25207;SDS011;13153;52.316;21.166;2023-11-21T01:06:28;46.10;;;26.13;;
25207;SDS011;13153;52.316;21.166;2023-11-21T01:08:55;44.63;;;26.02;;
25207;SDS011;13153;52.316;21.166;2023-11-21T01:11:20;42.15;;;24.40;;
25207;SDS011;13153;52.316;21.166;2023-11-21T01:13:46;46.75;;;26.13;;
25207;SDS011;13153;52.316;21.166;2023-11-21T01:16:12;48.42;;;27.85;;
25207;SDS011;13153;52.316;21.166;2023-11-21T01:18:38;46.38;;;26.30;;
25207;SDS011;13153;52.316;21.166;2023-11-21T01:21:04;45.58;;;27.10;;
25207;SDS011;13153;52.316;21.166;2023-11-21T01:23:30;47.55;;;27.63;;
25207;SDS011;13153;52.316;21.166;2023-11-21T01:25:56;51.30;;;29.15;;
25207;SDS011;13153;52.316;21.166;2023-11-21T01:28:22;49.35;;;28.77;;
25207;SDS011;13153;52.316;21.166;2023-11-21T01:30:48;51.83;;;29.75;;
25207;SDS011;13153;52.316;21.166;2023-11-21T01:33:14;53.42;;;29.20;;
25207;SDS011;13153;52.316;21.166;2023-11-21T01:35:40;53.50;;;28.92;;
25207;SDS011;13153;52.316;21.166;2023-11-21T01:38:07;47.95;;;26.80;;
25207;SDS011;13153;52.316;21.166;2023-11-21T01:40:33;44.85;;;26.40;;
25207;SDS011;13153;52.316;21.166;2023-11-21T01:43:00;47.92;;;27.05;;
25207;SDS011;13153;52.316;21.166;2023-11-21T01:45:28;45.33;;;26.00;;
25207;SDS011;13153;52.316;21.166;2023-11-21T01:47:56;45.58;;;27.45;;
25207;SDS011;13153;52.316;21.166;2023-11-21T01:50:23;46.78;;;26.40;;
25207;SDS011;13153;52.316;21.166;2023-11-21T01:52:50;49.67;;;27.65;;
25207;SDS011;13153;52.316;21.166;2023-11-21T01:55:17;50.67;;;27.08;;
25207;SDS011;13153;52.316;21.166;2023-11-21T01:57:43;45.35;;;25.75;;
25207;SDS011;13153;52.316;21.166;2023-11-21T02:00:11;48.03;;;26.77;;
25207;SDS011;13153;52.316;21.166;2023-11-21T02:02:42;47.03;;;26.75;;
25207;SDS011;13153;52.316;21.166;2023-11-21T02:05:12;50.08;;;27.25;;
25207;SDS011;13153;52.316;21.166;2023-11-21T02:07:43;48.25;;;26.27;;
25207;SDS011;13153;52.316;21.166;2023-11-21T02:10:12;47.38;;;25.67;;
25207;SDS011;13153;52.316;21.166;2023-11-21T02:12:42;49.70;;;28.10;;
25207;SDS011;13153;52.316;21.166;2023-11-21T02:15:12;50.10;;;26.52;;
25207;SDS011;13153;52.316;21.166;2023-11-21T02:17:45;49.97;;;28.33;;
25207;SDS011;13153;52.316;21.166;2023-11-21T02:20:19;45.63;;;26.42;;
25207;SDS011;13153;52.316;21.166;2023-11-21T02:22:49;49.53;;;27.70;;
25207;SDS011;13153;52.316;21.166;2023-11-21T02:25:23;47.60;;;27.00;;
25207;SDS011;13153;52.316;21.166;2023-11-21T02:27:53;45.03;;;26.42;;
25207;SDS011;13153;52.316;21.166;2023-11-21T02:30:23;48.53;;;27.92;;
25207;SDS011;13153;52.316;21.166;2023-11-21T02:32:53;49.97;;;27.60;;
25207;SDS011;13153;52.316;21.166;2023-11-21T02:35:20;53.97;;;28.23;;
25207;SDS011;13153;52.316;21.166;2023-11-21T02:37:46;47.47;;;25.80;;
25207;SDS011;13153;52.316;21.166;2023-11-21T02:40:13;51.60;;;28.63;;
25207;SDS011;13153;52.316;21.166;2023-11-21T02:42:43;47.03;;;27.73;;
25207;SDS011;13153;52.316;21.166;2023-11-21T02:45:09;52.50;;;28.40;;
25207;SDS011;13153;52.316;21.166;2023-11-21T02:47:37;51.95;;;28.90;;
25207;SDS011;13153;52.316;21.166;2023-11-21T02:50:04;50.38;;;26.98;;
25207;SDS011;13153;52.316;21.166;2023-11-21T02:52:33;50.25;;;27.67;;
25207;SDS011;13153;52.316;21.166;2023-11-21T02:55:00;52.08;;;28.17;;
25207;SDS011;13153;52.316;21.166;2023-11-21T02:57:27;50.10;;;28.50;;
25207;SDS011;13153;52.316;21.166;2023-11-21T02:59:53;51.15;;;29.02;;
25207;SDS011;13153;52.316;21.166;2023-11-21T03:02:19;52.10;;;28.65;;
25207;SDS011;13153;52.316;21.166;2023-11-21T03:04:45;51.42;;;27.80;;
25207;SDS011;13153;52.316;21.166;2023-11-21T03:07:13;51.95;;;28.75;;
25207;SDS011;13153;52.316;21.166;2023-11-21T03:09:38;51.58;;;28.35;;
25207;SDS011;13153;52.316;21.166;2023-11-21T03:12:04;54.42;;;28.52;;
25207;SDS011;13153;52.316;21.166;2023-11-21T03:14:30;57.58;;;27.60;;
25207;SDS011;13153;52.316;21.166;2023-11-21T03:16:56;55.53;;;28.00;;
25207;SDS011;13153;52.316;21.166;2023-11-21T03:19:22;56.00;;;28.42;;
25207;SDS011;13153;52.316;21.166;2023-11-21T03:21:48;51.13;;;28.10;;
25207;SDS011;13153;52.316;21.166;2023-11-21T03:24:14;53.03;;;27.67;;
25207;SDS011;13153;52.316;21.166;2023-11-21T03:26:44;52.38;;;28.80;;
25207;SDS011;13153;52.316;21.166;2023-11-21T03:29:11;49.58;;;26.73;;
25207;SDS011;13153;52.316;21.166;2023-11-21T03:31:37;52.30;;;27.02;;
25207;SDS011;13153;52.316;21.166;2023-11-21T03:34:03;53.72;;;28.30;;
25207;SDS011;13153;52.316;21.166;2023-11-21T03:36:29;49.75;;;26.80;;
25207;SDS011;13153;52.316;21.166;2023-11-21T03:38:54;57.30;;;27.98;;
25207;SDS011;13153;52.316;21.166;2023-11-21T03:41:20;53.28;;;26.67;;
25207;SDS011;13153;52.316;21.166;2023-11-21T03:43:46;54.28;;;27.45;;
25207;SDS011;13153;52.316;21.166;2023-11-21T03:46:12;54.17;;;28.00;;
25207;SDS011;13153;52.316;21.166;2023-11-21T03:48:38;53.88;;;27.85;;
25207;SDS011;13153;52.316;21.166;2023-11-21T03:51:04;53.60;;;26.85;;
25207;SDS011;13153;52.316;21.166;2023-11-21T03:53:30;54.42;;;25.90;;
25207;SDS011;13153;52.316;21.166;2023-11-21T03:55:56;50.35;;;26.70;;
25207;SDS011;13153;52.316;21.166;2023-11-21T03:58:22;56.40;;;28.25;;
25207;SDS011;13153;52.316;21.166;2023-11-21T04:00:48;50.83;;;28.35;;
25207;SDS011;13153;52.316;21.166;2023-11-21T04:03:14;61.55;;;28.27;;
25207;SDS011;13153;52.316;21.166;2023-11-21T04:05:40;50.08;;;27.83;;
25207;SDS011;13153;52.316;21.166;2023-11-21T04:08:06;54.55;;;27.08;;
25207;SDS011;13153;52.316;21.166;2023-11-21T04:10:32;52.67;;;27.15;;
25207;SDS011;13153;52.316;21.166;2023-11-21T04:12:58;47.55;;;25.63;;
25207;SDS011;13153;52.316;21.166;2023-11-21T04:15:25;54.20;;;27.20;;
25207;SDS011;13153;52.316;21.166;2023-11-21T04:17:51;56.60;;;26.42;;
25207;SDS011;13153;52.316;21.166;2023-11-21T04:20:17;51.33;;;25.65;;
25207;SDS011;13153;52.316;21.166;2023-11-21T04:22:43;48.00;;;25.98;;
25207;SDS011;13153;52.316;21.166;2023-11-21T04:25:10;50.55;;;25.90;;
25207;SDS011;13153;52.316;21.166;2023-11-21T04:27:40;42.78;;;24.17;;
25207;SDS011;13153;52.316;21.166;2023-11-21T04:30:10;55.00;;;24.70;;
25207;SDS011;13153;52.316;21.166;2023-11-21T04:32:38;44.97;;;23.75;;
25207;SDS011;13153;52.316;21.166;2023-11-21T04:35:04;52.88;;;25.65;;
25207;SDS011;13153;52.316;21.166;2023-11-21T04:37:31;46.10;;;23.92;;
25207;SDS011;13153;52.316;21.166;2023-11-21T04:39:56;48.05;;;24.27;;
25207;SDS011;13153;52.316;21.166;2023-11-21T04:42:22;45.20;;;23.50;;
25207;SDS011;13153;52.316;21.166;2023-11-21T04:44:48;43.83;;;23.33;;
25207;SDS011;13153;52.316;21.166;2023-11-21T04:47:14;43.38;;;22.95;;
25207;SDS011;13153;52.316;21.166;2023-11-21T04:49:43;37.00;;;20.95;;
25207;SDS011;13153;52.316;21.166;2023-11-21T04:52:12;36.63;;;20.35;;
25207;SDS011;13153;52.316;21.166;2023-11-21T04:54:37;38.40;;;20.88;;
25207;SDS011;13153;52.316;21.166;2023-11-21T04:57:04;40.35;;;22.27;;
25207;SDS011;13153;52.316;21.166;2023-11-21T04:59:32;43.63;;;22.67;;
25207;SDS011;13153;52.316;21.166;2023-11-21T05:01:59;46.00;;;22.73;;
25207;SDS011;13153;52.316;21.166;2023-11-21T05:04:28;45.42;;;22.27;;
25207;SDS011;13153;52.316;21.166;2023-11-21T05:06:53;39.67;;;21.50;;
25207;SDS011;13153;52.316;21.166;2023-11-21T05:09:20;40.10;;;22.73;;
25207;SDS011;13153;52.316;21.166;2023-11-21T05:11:47;39.17;;;21.83;;
25207;SDS011;13153;52.316;21.166;2023-11-21T05:14:12;36.85;;;20.58;;
25207;SDS011;13153;52.316;21.166;2023-11-21T05:16:39;38.30;;;20.88;;
25207;SDS011;13153;52.316;21.166;2023-11-21T05:19:04;36.55;;;20.35;;
25207;SDS011;13153;52.316;21.166;2023-11-21T05:21:31;33.25;;;19.60;;
25207;SDS011;13153;52.316;21.166;2023-11-21T05:23:57;34.85;;;19.33;;
25207;SDS011;13153;52.316;21.166;2023-11-21T05:26:23;39.33;;;20.55;;
25207;SDS011;13153;52.316;21.166;2023-11-21T05:28:49;36.90;;;20.85;;
25207;SDS011;13153;52.316;21.166;2023-11-21T05:31:15;36.08;;;19.98;;
25207;SDS011;13153;52.316;21.166;2023-11-21T05:33:41;34.65;;;20.40;;
25207;SDS011;13153;52.316;21.166;2023-11-21T05:36:07;36.88;;;20.35;;
25207;SDS011;13153;52.316;21.166;2023-11-21T05:38:35;32.55;;;18.88;;
25207;SDS011;13153;52.316;21.166;2023-11-21T05:41:02;36.92;;;19.50;;
25207;SDS011;13153;52.316;21.166;2023-11-21T05:43:28;33.72;;;18.38;;
25207;SDS011;13153;52.316;21.166;2023-11-21T05:45:55;36.40;;;19.73;;
25207;SDS011;13153;52.316;21.166;2023-11-21T05:48:21;30.95;;;18.08;;
25207;SDS011;13153;52.316;21.166;2023-11-21T05:50:48;34.65;;;18.27;;
25207;SDS011;13153;52.316;21.166;2023-11-21T05:53:15;38.75;;;19.98;;
25207;SDS011;13153;52.316;21.166;2023-11-21T05:55:41;36.00;;;18.23;;
25207;SDS011;13153;52.316;21.166;2023-11-21T05:58:07;34.53;;;19.45;;
25207;SDS011;13153;52.316;21.166;2023-11-21T06:00:33;32.78;;;19.00;;
25207;SDS011;13153;52.316;21.166;2023-11-21T06:02:59;35.58;;;18.63;;
25207;SDS011;13153;52.316;21.166;2023-11-21T06:05:26;35.05;;;18.83;;
25207;SDS011;13153;52.316;21.166;2023-11-21T06:07:55;34.08;;;19.33;;
25207;SDS011;13153;52.316;21.166;2023-11-21T06:10:23;37.47;;;18.98;;
25207;SDS011;13153;52.316;21.166;2023-11-21T06:12:50;34.38;;;19.05;;
25207;SDS011;13153;52.316;21.166;2023-11-21T06:15:16;35.95;;;21.17;;
25207;SDS011;13153;52.316;21.166;2023-11-21T06:17:45;36.65;;;20.55;;
25207;SDS011;13153;52.316;21.166;2023-11-21T06:20:14;38.22;;;20.08;;
25207;SDS011;13153;52.316;21.166;2023-11-21T06:22:43;39.45;;;19.98;;
25207;SDS011;13153;52.316;21.166;2023-11-21T06:25:12;36.28;;;18.80;;
25207;SDS011;13153;52.316;21.166;2023-11-21T06:27:40;32.95;;;18.90;;
25207;SDS011;13153;52.316;21.166;2023-11-21T06:30:08;34.63;;;18.80;;
25207;SDS011;13153;52.316;21.166;2023-11-21T06:32:35;37.42;;;19.17;;
25207;SDS011;13153;52.316;21.166;2023-11-21T06:35:04;32.75;;;19.13;;
25207;SDS011;13153;52.316;21.166;2023-11-21T06:37:31;36.08;;;19.45;;
25207;SDS011;13153;52.316;21.166;2023-11-21T06:39:58;40.55;;;19.92;;
25207;SDS011;13153;52.316;21.166;2023-11-21T06:42:25;40.05;;;20.48;;
25207;SDS011;13153;52.316;21.166;2023-11-21T06:44:52;35.95;;;19.77;;
25207;SDS011;13153;52.316;21.166;2023-11-21T06:47:18;37.80;;;20.70;;
25207;SDS011;13153;52.316;21.166;2023-11-21T06:49:49;37.15;;;20.27;;
25207;SDS011;13153;52.316;21.166;2023-11-21T06:52:16;39.83;;;20.80;;
25207;SDS011;13153;52.316;21.166;2023-11-21T06:54:43;45.00;;;20.25;;
25207;SDS011;13153;52.316;21.166;2023-11-21T06:57:10;39.38;;;20.63;;
25207;SDS011;13153;52.316;21.166;2023-11-21T06:59:36;36.45;;;19.77;;
25207;SDS011;13153;52.316;21.166;2023-11-21T07:02:02;37.00;;;20.05;;
25207;SDS011;13153;52.316;21.166;2023-11-21T07:04:31;35.53;;;19.95;;
25207;SDS011;13153;52.316;21.166;2023-11-21T07:06:58;37.47;;;19.67;;
25207;SDS011;13153;52.316;21.166;2023-11-21T07:09:24;39.65;;;20.00;;
25207;SDS011;13153;52.316;21.166;2023-11-21T07:11:51;39.35;;;20.67;;
25207;SDS011;13153;52.316;21.166;2023-11-21T07:14:20;40.30;;;21.33;;
25207;SDS011;13153;52.316;21.166;2023-11-21T07:16:46;41.47;;;20.30;;
25207;SDS011;13153;52.316;21.166;2023-11-21T07:19:12;39.63;;;20.67;;
25207;SDS011;13153;52.316;21.166;2023-11-21T07:21:39;38.40;;;20.85;;
25207;SDS011;13153;52.316;21.166;2023-11-21T07:24:06;40.83;;;20.92;;
25207;SDS011;13153;52.316;21.166;2023-11-21T07:26:33;38.65;;;20.90;;
25207;SDS011;13153;52.316;21.166;2023-11-21T07:29:00;40.00;;;20.15;;
25207;SDS011;13153;52.316;21.166;2023-11-21T07:31:27;42.03;;;21.02;;
25207;SDS011;13153;52.316;21.166;2023-11-21T07:33:54;37.60;;;21.35;;
25207;SDS011;13153;52.316;21.166;2023-11-21T07:36:23;39.70;;;21.27;;
25207;SDS011;13153;52.316;21.166;2023-11-21T07:38:50;42.40;;;22.52;;
25207;SDS011;13153;52.316;21.166;2023-11-21T07:41:16;43.22;;;21.75;;
25207;SDS011;13153;52.316;21.166;2023-11-21T07:43:45;46.28;;;21.90;;
25207;SDS011;13153;52.316;21.166;2023-11-21T07:46:12;45.05;;;21.83;;
25207;SDS011;13153;52.316;21.166;2023-11-21T07:48:38;44.05;;;22.25;;
25207;SDS011;13153;52.316;21.166;2023-11-21T07:51:11;47.22;;;23.35;;
25207;SDS011;13153;52.316;21.166;2023-11-21T07:53:38;45.95;;;23.23;;
25207;SDS011;13153;52.316;21.166;2023-11-21T07:56:04;42.47;;;22.73;;
25207;SDS011;13153;52.316;21.166;2023-11-21T07:58:35;43.13;;;22.77;;
25207;SDS011;13153;52.316;21.166;2023-11-21T08:01:02;45.20;;;22.35;;
25207;SDS011;13153;52.316;21.166;2023-11-21T08:03:28;43.45;;;22.25;;
25207;SDS011;13153;52.316;21.166;2023-11-21T08:05:55;41.13;;;22.13;;
25207;SDS011;13153;52.316;21.166;2023-11-21T08:08:22;45.38;;;22.00;;
25207;SDS011;13153;52.316;21.166;2023-11-21T08:10:48;47.72;;;23.45;;
25207;SDS011;13153;52.316;21.166;2023-11-21T08:13:21;43.17;;;22.73;;
25207;SDS011;13153;52.316;21.166;2023-11-21T08:15:48;40.88;;;22.95;;
25207;SDS011;13153;52.316;21.166;2023-11-21T08:18:14;49.88;;;24.95;;
25207;SDS011;13153;52.316;21.166;2023-11-21T08:20:41;45.17;;;24.20;;
25207;SDS011;13153;52.316;21.166;2023-11-21T08:23:07;49.40;;;23.40;;
25207;SDS011;13153;52.316;21.166;2023-11-21T08:25:32;53.10;;;28.27;;
25207;SDS011;13153;52.316;21.166;2023-11-21T08:27:59;55.83;;;28.33;;
25207;SDS011;13153;52.316;21.166;2023-11-21T08:30:26;59.20;;;29.80;;
25207;SDS011;13153;52.316;21.166;2023-11-21T08:32:55;60.00;;;29.90;;
25207;SDS011;13153;52.316;21.166;2023-11-21T08:35:23;67.95;;;31.83;;
25207;SDS011;13153;52.316;21.166;2023-11-21T08:37:52;63.72;;;33.05;;
25207;SDS011;13153;52.316;21.166;2023-11-21T08:40:19;60.53;;;31.98;;
25207;SDS011;13153;52.316;21.166;2023-11-21T08:42:46;60.70;;;31.42;;
25207;SDS011;13153;52.316;21.166;2023-11-21T08:45:13;64.93;;;32.58;;
25207;SDS011;13153;52.316;21.166;2023-11-21T08:47:42;62.95;;;31.35;;
25207;SDS011;13153;52.316;21.166;2023-11-21T08:50:11;61.15;;;30.45;;
25207;SDS011;13153;52.316;21.166;2023-11-21T08:52:38;60.13;;;30.92;;
25207;SDS011;13153;52.316;21.166;2023-11-21T08:55:05;59.60;;;29.27;;
25207;SDS011;13153;52.316;21.166;2023-11-21T08:57:40;59.28;;;30.20;;
25207;SDS011;13153;52.316;21.166;2023-11-21T09:00:09;53.92;;;29.27;;
25207;SDS011;13153;52.316;21.166;2023-11-21T09:02:41;59.63;;;30.52;;
25207;SDS011;13153;52.316;21.166;2023-11-21T09:05:07;57.00;;;29.17;;
25207;SDS011;13153;52.316;21.166;2023-11-21T09:07:34;55.92;;;29.52;;
25207;SDS011;13153;52.316;21.166;2023-11-21T09:10:01;53.83;;;29.40;;
25207;SDS011;13153;52.316;21.166;2023-11-21T09:15:43;61.65;;;29.98;;
25207;SDS011;13153;52.316;21.166;2023-11-21T09:18:12;57.15;;;29.98;;
25207;SDS011;13153;52.316;21.166;2023-11-21T09:20:39;58.47;;;30.02;;
25207;SDS011;13153;52.316;21.166;2023-11-21T09:23:04;56.40;;;27.55;;
25207;SDS011;13153;52.316;21.166;2023-11-21T09:25:30;50.42;;;27.38;;
25207;SDS011;13153;52.316;21.166;2023-11-21T09:27:56;54.78;;;27.00;;
25207;SDS011;13153;52.316;21.166;2023-11-21T09:30:22;62.78;;;30.40;;
25207;SDS011;13153;52.316;21.166;2023-11-21T09:32:49;60.53;;;30.17;;
25207;SDS011;13153;52.316;21.166;2023-11-21T09:35:18;53.92;;;27.67;;
25207;SDS011;13153;52.316;21.166;2023-11-21T09:37:44;57.72;;;29.33;;
25207;SDS011;13153;52.316;21.166;2023-11-21T09:40:10;47.00;;;24.30;;
25207;SDS011;13153;52.316;21.166;2023-11-21T09:45:32;48.22;;;24.58;;
25207;SDS011;13153;52.316;21.166;2023-11-21T09:48:00;47.03;;;25.55;;
25207;SDS011;13153;52.316;21.166;2023-11-21T09:50:27;50.78;;;26.48;;
25207;SDS011;13153;52.316;21.166;2023-11-21T09:55:49;53.40;;;27.55;;
25207;SDS011;13153;52.316;21.166;2023-11-21T09:58:17;51.78;;;27.38;;
25207;SDS011;13153;52.316;21.166;2023-11-21T10:00:45;53.97;;;28.80;;
25207;SDS011;13153;52.316;21.166;2023-11-21T10:03:13;51.80;;;26.23;;
25207;SDS011;13153;52.316;21.166;2023-11-21T10:05:40;49.67;;;26.13;;
25207;SDS011;13153;52.316;21.166;2023-11-21T10:08:09;56.13;;;29.20;;
25207;SDS011;13153;52.316;21.166;2023-11-21T10:10:37;56.72;;;29.67;;
25207;SDS011;13153;52.316;21.166;2023-11-21T10:13:13;55.72;;;29.63;;
25207;SDS011;13153;52.316;21.166;2023-11-21T10:15:41;51.33;;;27.85;;
25207;SDS011;13153;52.316;21.166;2023-11-21T10:18:13;60.50;;;29.20;;
25207;SDS011;13153;52.316;21.166;2023-11-21T10:20:42;49.08;;;27.08;;
25207;SDS011;13153;52.316;21.166;2023-11-21T10:23:08;52.95;;;28.25;;
25207;SDS011;13153;52.316;21.166;2023-11-21T10:25:36;47.63;;;26.77;;
25207;SDS011;13153;52.316;21.166;2023-11-21T10:28:03;47.92;;;26.33;;
25207;SDS011;13153;52.316;21.166;2023-11-21T10:30:35;56.50;;;28.45;;
25207;SDS011;13153;52.316;21.166;2023-11-21T10:33:06;47.88;;;24.88;;
25207;SDS011;13153;52.316;21.166;2023-11-21T10:38:12;49.60;;;27.00;;
25207;SDS011;13153;52.316;21.166;2023-11-21T10:40:39;51.15;;;27.02;;
25207;SDS011;13153;52.316;21.166;2023-11-21T10:43:07;56.33;;;26.20;;
25207;SDS011;13153;52.316;21.166;2023-11-21T10:45:34;50.65;;;26.80;;
25207;SDS011;13153;52.316;21.166;2023-11-21T10:48:04;48.92;;;26.17;;
25207;SDS011;13153;52.316;21.166;2023-11-21T10:50:35;51.10;;;26.40;;
25207;SDS011;13153;52.316;21.166;2023-11-21T10:53:05;53.28;;;26.63;;
25207;SDS011;13153;52.316;21.166;2023-11-21T10:55:32;49.67;;;26.17;;
25207;SDS011;13153;52.316;21.166;2023-11-21T10:58:02;52.55;;;27.33;;
25207;SDS011;13153;52.316;21.166;2023-11-21T11:00:30;58.05;;;28.80;;
25207;SDS011;13153;52.316;21.166;2023-11-21T11:02:59;52.05;;;27.10;;
25207;SDS011;13153;52.316;21.166;2023-11-21T11:05:27;53.40;;;26.75;;
25207;SDS011;13153;52.316;21.166;2023-11-21T11:10:31;51.17;;;26.67;;
25207;SDS011;13153;52.316;21.166;2023-11-21T11:12:57;50.50;;;26.52;;
25207;SDS011;13153;52.316;21.166;2023-11-21T11:15:24;53.38;;;25.77;;
25207;SDS011;13153;52.316;21.166;2023-11-21T11:17:52;47.63;;;24.52;;
25207;SDS011;13153;52.316;21.166;2023-11-21T11:20:22;52.53;;;24.92;;
25207;SDS011;13153;52.316;21.166;2023-11-21T11:26:06;50.95;;;25.67;;
25207;SDS011;13153;52.316;21.166;2023-11-21T11:38:03;47.45;;;24.33;;
25207;SDS011;13153;52.316;21.166;2023-11-21T11:40:41;49.97;;;25.30;;
25207;SDS011;13153;52.316;21.166;2023-11-21T11:43:11;52.78;;;26.23;;
25207;SDS011;13153;52.316;21.166;2023-11-21T11:45:37;53.80;;;26.63;;
25207;SDS011;13153;52.316;21.166;2023-11-21T11:48:07;49.50;;;25.77;;
25207;SDS011;13153;52.316;21.166;2023-11-21T11:50:41;50.15;;;24.58;;
25207;SDS011;13153;52.316;21.166;2023-11-21T11:53:28;51.25;;;26.80;;
25207;SDS011;13153;52.316;21.166;2023-11-21T11:59:03;50.65;;;27.00;;
25207;SDS011;13153;52.316;21.166;2023-11-21T12:01:34;56.35;;;27.08;;
25207;SDS011;13153;52.316;21.166;2023-11-21T12:06:48;51.50;;;28.42;;
25207;SDS011;13153;52.316;21.166;2023-11-21T12:09:21;49.00;;;26.83;;
25207;SDS011;13153;52.316;21.166;2023-11-21T12:11:49;48.45;;;26.55;;
25207;SDS011;13153;52.316;21.166;2023-11-21T12:14:15;49.65;;;27.30;;
25207;SDS011;13153;52.316;21.166;2023-11-21T12:16:42;53.20;;;27.35;;
25207;SDS011;13153;52.316;21.166;2023-11-21T12:19:12;49.78;;;27.05;;
25207;SDS011;13153;52.316;21.166;2023-11-21T12:21:38;52.75;;;27.73;;
25207;SDS011;13153;52.316;21.166;2023-11-21T12:24:09;49.38;;;26.67;;
25207;SDS011;13153;52.316;21.166;2023-11-21T12:26:35;54.22;;;27.25;;
25207;SDS011;13153;52.316;21.166;2023-11-21T12:29:01;49.55;;;26.70;;
25207;SDS011;13153;52.316;21.166;2023-11-21T12:31:29;54.17;;;28.40;;
25207;SDS011;13153;52.316;21.166;2023-11-21T12:33:56;49.67;;;26.60;;
25207;SDS011;13153;52.316;21.166;2023-11-21T12:36:22;51.25;;;26.98;;
25207;SDS011;13153;52.316;21.166;2023-11-21T12:38:50;51.15;;;27.05;;
25207;SDS011;13153;52.316;21.166;2023-11-21T12:41:16;49.70;;;27.10;;
25207;SDS011;13153;52.316;21.166;2023-11-21T12:43:42;45.42;;;25.40;;
25207;SDS011;13153;52.316;21.166;2023-11-21T12:46:09;52.63;;;26.55;;
25207;SDS011;13153;52.316;21.166;2023-11-21T12:48:40;47.10;;;26.20;;
25207;SDS011;13153;52.316;21.166;2023-11-21T12:51:07;47.85;;;25.92;;
25207;SDS011;13153;52.316;21.166;2023-11-21T12:53:34;45.88;;;25.38;;
25207;SDS011;13153;52.316;21.166;2023-11-21T12:56:07;45.58;;;25.42;;
25207;SDS011;13153;52.316;21.166;2023-11-21T12:58:36;50.85;;;26.70;;
25207;SDS011;13153;52.316;21.166;2023-11-21T13:01:04;48.22;;;26.98;;
25207;SDS011;13153;52.316;21.166;2023-11-21T13:03:37;50.42;;;27.58;;
25207;SDS011;13153;52.316;21.166;2023-11-21T13:06:05;46.65;;;25.42;;
25207;SDS011;13153;52.316;21.166;2023-11-21T13:08:32;47.22;;;26.27;;
25207;SDS011;13153;52.316;21.166;2023-11-21T13:10:59;49.95;;;26.38;;
25207;SDS011;13153;52.316;21.166;2023-11-21T13:13:27;50.88;;;26.08;;
25207;SDS011;13153;52.316;21.166;2023-11-21T13:15:55;49.55;;;28.05;;
25207;SDS011;13153;52.316;21.166;2023-11-21T13:18:26;51.25;;;27.15;;
25207;SDS011;13153;52.316;21.166;2023-11-21T13:20:56;49.03;;;26.08;;
25207;SDS011;13153;52.316;21.166;2023-11-21T13:23:35;52.90;;;25.20;;
25207;SDS011;13153;52.316;21.166;2023-11-21T13:26:02;49.80;;;26.42;;
25207;SDS011;13153;52.316;21.166;2023-11-21T13:28:35;49.13;;;26.95;;
25207;SDS011;13153;52.316;21.166;2023-11-21T13:31:03;46.75;;;25.13;;
25207;SDS011;13153;52.316;21.166;2023-11-21T13:33:46;50.03;;;27.10;;
25207;SDS011;13153;52.316;21.166;2023-11-21T13:36:21;50.60;;;27.02;;
25207;SDS011;13153;52.316;21.166;2023-11-21T13:38:51;50.90;;;27.08;;
25207;SDS011;13153;52.316;21.166;2023-11-21T13:41:20;50.60;;;27.45;;
25207;SDS011;13153;52.316;21.166;2023-11-21T13:43:52;47.88;;;26.20;;
25207;SDS011;13153;52.316;21.166;2023-11-21T13:46:25;53.20;;;28.67;;
25207;SDS011;13153;52.316;21.166;2023-11-21T13:48:51;54.30;;;28.92;;
25207;SDS011;13153;52.316;21.166;2023-11-21T13:51:20;54.50;;;28.83;;
25207;SDS011;13153;52.316;21.166;2023-11-21T13:53:55;49.58;;;27.40;;
25207;SDS011;13153;52.316;21.166;2023-11-21T13:56:21;55.30;;;29.27;;
25207;SDS011;13153;52.316;21.166;2023-11-21T13:58:51;60.10;;;30.42;;
25207;SDS011;13153;52.316;21.166;2023-11-21T14:01:19;57.33;;;30.60;;
25207;SDS011;13153;52.316;21.166;2023-11-21T14:03:58;53.00;;;29.85;;
25207;SDS011;13153;52.316;21.166;2023-11-21T14:06:47;54.47;;;28.05;;
25207;SDS011;13153;52.316;21.166;2023-11-21T14:09:19;49.72;;;27.70;;
25207;SDS011;13153;52.316;21.166;2023-11-21T14:12:00;55.90;;;30.10;;
25207;SDS011;13153;52.316;21.166;2023-11-21T14:14:31;53.88;;;29.00;;
25207;SDS011;13153;52.316;21.166;2023-11-21T14:16:57;52.65;;;29.35;;
25207;SDS011;13153;52.316;21.166;2023-11-21T14:19:23;53.90;;;29.80;;
25207;SDS011;13153;52.316;21.166;2023-11-21T14:21:55;59.33;;;29.88;;
25207;SDS011;13153;52.316;21.166;2023-11-21T14:24:21;52.22;;;30.00;;
25207;SDS011;13153;52.316;21.166;2023-11-21T14:26:48;55.65;;;29.85;;
25207;SDS011;13153;52.316;21.166;2023-11-21T14:29:17;51.13;;;29.30;;
25207;SDS011;13153;52.316;21.166;2023-11-21T14:31:48;51.00;;;28.40;;
25207;SDS011;13153;52.316;21.166;2023-11-21T14:34:21;55.30;;;29.40;;
25207;SDS011;13153;52.316;21.166;2023-11-21T14:36:48;53.38;;;28.92;;
25207;SDS011;13153;52.316;21.166;2023-11-21T14:39:14;55.47;;;28.17;;
25207;SDS011;13153;52.316;21.166;2023-11-21T14:41:53;45.72;;;26.42;;
25207;SDS011;13153;52.316;21.166;2023-11-21T14:44:24;57.55;;;28.27;;